Time;durP1;ratioP1;P1;durP2;ratioP2;P2;SDS_P1;SDS_P2;PMS_P1;PMS_P2;Temp;Humidity;BMP_temperature;BMP_pressure;BME280_temperature;BME280_humidity;BME280_pressure;Samples;Min_cycle;Max_cycle;Signal;HPM_P1;HPM_P2
2024/03/25 00:01:32;;;;;;;5.27;3.93;;;5.80;99.90;;;;;;5034749;28;20462;-63
2024/03/25 00:03:58;;;;;;;3.73;3.43;;;5.80;99.90;;;;;;5036926;28;20427;-63
2024/03/25 00:06:24;;;;;;;3.90;3.17;;;5.90;99.90;;;;;;5036155;28;20579;-63
2024/03/25 00:08:49;;;;;;;3.40;3.10;;;5.80;99.90;;;;;;5040346;28;20195;-63
2024/03/25 00:11:15;;;;;;;3.10;2.80;;;5.90;99.90;;;;;;5033416;28;20179;-63
2024/03/25 00:13:40;;;;;;;5.00;3.63;;;5.90;99.90;;;;;;5035635;28;20183;-63
2024/03/25 00:16:06;;;;;;;4.50;3.30;;;5.90;99.90;;;;;;5034889;28;20321;-63
2024/03/25 00:18:32;;;;;;;4.13;3.63;;;5.90;99.90;;;;;;5034150;28;20225;-63
2024/03/25 00:20:58;;;;;;;3.43;3.13;;;5.90;99.90;;;;;;5036043;28;20221;-64
2024/03/25 00:23:24;;;;;;;3.43;3.10;;;5.90;99.90;;;;;;5035374;28;20855;-63
2024/03/25 00:25:50;;;;;;;3.70;3.40;;;6.00;99.90;;;;;;5036166;28;20505;-64
2024/03/25 00:28:15;;;;;;;5.30;3.87;;;6.00;99.90;;;;;;5036048;28;20504;-63
2024/03/25 00:30:41;;;;;;;4.13;3.70;;;5.90;99.90;;;;;;5035690;28;20272;-63
2024/03/25 00:33:07;;;;;;;3.77;3.40;;;5.90;99.90;;;;;;5036571;28;20186;-64
2024/03/25 00:35:33;;;;;;;5.03;3.70;;;5.90;99.90;;;;;;5036284;28;20627;-64
2024/03/25 00:38:00;;;;;;;3.10;2.87;;;5.80;99.90;;;;;;5036050;28;20188;-63
2024/03/25 00:40:26;;;;;;;6.00;3.67;;;5.80;99.90;;;;;;5035677;28;20448;-64
2024/03/25 00:42:52;;;;;;;4.20;3.60;;;5.80;99.90;;;;;;5036004;28;20553;-64
2024/03/25 00:45:17;;;;;;;3.37;3.07;;;5.80;99.90;;;;;;5036280;28;20461;-64
2024/03/25 00:47:43;;;;;;;3.50;3.20;;;5.80;99.90;;;;;;5036394;28;20195;-63
2024/03/25 00:50:09;;;;;;;4.30;3.60;;;5.80;99.90;;;;;;5034925;28;20724;-64
2024/03/25 00:52:35;;;;;;;4.00;3.43;;;5.80;99.90;;;;;;5033696;28;20484;-64
2024/03/25 00:55:00;;;;;;;4.73;4.00;;;5.80;99.90;;;;;;5035280;28;20180;-65
2024/03/25 00:57:26;;;;;;;4.57;4.07;;;5.90;99.90;;;;;;5035537;28;20454;-64
2024/03/25 00:59:52;;;;;;;4.33;3.57;;;5.90;99.90;;;;;;5032954;28;20197;-63
2024/03/25 01:02:17;;;;;;;5.80;4.80;;;5.90;99.90;;;;;;5032015;28;20230;-63
2024/03/25 01:04:43;;;;;;;5.13;4.07;;;5.90;99.90;;;;;;5032304;28;20656;-63
2024/03/25 01:07:09;;;;;;;4.93;4.33;;;5.80;99.90;;;;;;5013510;28;20500;-63
2024/03/25 01:09:35;;;;;;;6.33;4.40;;;5.80;99.90;;;;;;5031382;28;20200;-64
2024/03/25 01:12:00;;;;;;;5.33;4.73;;;5.90;99.90;;;;;;5033043;28;20199;-62
2024/03/25 01:14:26;;;;;;;4.73;4.20;;;5.80;99.90;;;;;;5033217;28;20673;-63
2024/03/25 01:16:52;;;;;;;7.10;4.77;;;5.90;99.90;;;;;;5033538;28;20209;-63
2024/03/25 01:19:18;;;;;;;5.57;4.47;;;5.90;99.90;;;;;;5013820;28;20665;-63
2024/03/25 01:21:44;;;;;;;6.67;5.20;;;5.90;99.90;;;;;;5035821;28;20466;-63
2024/03/25 01:24:10;;;;;;;4.67;4.10;;;5.90;99.90;;;;;;5032848;28;20231;-62
2024/03/25 01:26:36;;;;;;;6.90;5.10;;;5.90;99.90;;;;;;5032614;28;20454;-63
2024/03/25 01:29:02;;;;;;;6.73;4.67;;;5.90;99.90;;;;;;5032403;28;20285;-63
2024/03/25 01:31:27;;;;;;;7.63;4.87;;;5.90;99.90;;;;;;5033328;28;20434;-62
2024/03/25 01:33:53;;;;;;;6.73;5.30;;;5.90;99.90;;;;;;5034330;28;20668;-63
2024/03/25 01:36:18;;;;;;;6.33;4.90;;;6.00;99.90;;;;;;5041055;28;20241;-64
2024/03/25 01:38:44;;;;;;;6.10;4.70;;;5.90;99.90;;;;;;5033588;28;20619;-63
2024/03/25 01:41:12;;;;;;;7.33;5.10;;;5.90;99.90;;;;;;5033878;28;20199;-62
2024/03/25 01:43:38;;;;;;;7.13;5.30;;;5.90;99.90;;;;;;5035161;28;20180;-63
2024/03/25 01:46:05;;;;;;;5.60;4.97;;;5.90;99.90;;;;;;5034120;28;20423;-62
2024/03/25 01:48:31;;;;;;;5.83;4.73;;;6.00;99.90;;;;;;5033848;28;20507;-62
2024/03/25 01:50:58;;;;;;;9.30;6.03;;;6.00;99.90;;;;;;5034683;28;20932;-63
2024/03/25 01:53:24;;;;;;;6.10;5.30;;;6.00;99.90;;;;;;5034583;28;20525;-63
2024/03/25 01:55:54;;;;;;;8.70;5.83;;;6.00;99.90;;;;;;5033588;28;20430;-63
2024/03/25 01:58:21;;;;;;;5.10;4.60;;;6.00;99.90;;;;;;5033387;28;21048;-64
2024/03/25 02:00:47;;;;;;;6.43;4.90;;;6.00;99.90;;;;;;5033254;28;20461;-63
2024/03/25 02:03:14;;;;;;;6.80;6.13;;;5.90;99.90;;;;;;5033566;28;20461;-64
2024/03/25 02:05:39;;;;;;;6.53;4.40;;;6.00;99.90;;;;;;5033719;28;20450;-64
2024/03/25 02:08:06;;;;;;;8.33;3.90;;;6.00;99.90;;;;;;5033529;28;20782;-63
2024/03/25 02:10:32;;;;;;;3.27;2.63;;;5.90;99.90;;;;;;5032854;28;20207;-64
2024/03/25 02:12:59;;;;;;;2.70;2.50;;;5.90;99.90;;;;;;5033350;28;20488;-64
2024/03/25 02:15:26;;;;;;;3.07;2.23;;;5.90;99.90;;;;;;5034338;28;20507;-64
2024/03/25 02:17:52;;;;;;;2.30;2.10;;;5.80;99.90;;;;;;5033994;28;20417;-64
2024/03/25 02:20:18;;;;;;;2.77;1.50;;;5.80;99.90;;;;;;5032895;28;20434;-64
2024/03/25 02:22:43;;;;;;;1.70;1.60;;;5.70;99.90;;;;;;5023950;28;20705;-64
2024/03/25 02:25:10;;;;;;;1.93;1.73;;;5.70;99.90;;;;;;5031747;28;20418;-63
2024/03/25 02:27:37;;;;;;;4.57;2.47;;;5.60;99.90;;;;;;5032811;28;20635;-64
2024/03/25 02:30:08;;;;;;;2.93;2.67;;;5.60;99.90;;;;;;5032991;28;20468;-63
2024/03/25 02:32:34;;;;;;;1.77;1.63;;;5.60;99.90;;;;;;5034134;28;20430;-63
2024/03/25 02:35:02;;;;;;;5.10;2.50;;;5.70;99.90;;;;;;5039902;28;20429;-64
2024/03/25 02:37:28;;;;;;;2.80;2.50;;;5.70;99.90;;;;;;5032583;28;20438;-63
2024/03/25 02:39:55;;;;;;;2.90;1.97;;;5.60;99.90;;;;;;5032899;28;20588;-63
2024/03/25 02:42:21;;;;;;;3.60;1.93;;;5.60;99.90;;;;;;5031550;28;20244;-63
2024/03/25 02:44:47;;;;;;;2.33;2.00;;;5.60;99.90;;;;;;5032384;28;20410;-63
2024/03/25 02:47:12;;;;;;;2.10;1.87;;;5.50;99.90;;;;;;5032459;28;20442;-63
2024/03/25 02:49:38;;;;;;;6.67;1.93;;;5.40;99.90;;;;;;5031087;28;20504;-64
2024/03/25 02:52:04;;;;;;;2.33;1.53;;;5.50;99.90;;;;;;5033045;28;20227;-63
2024/03/25 02:54:29;;;;;;;1.77;1.60;;;5.40;99.90;;;;;;5032414;28;20644;-63
2024/03/25 02:56:55;;;;;;;3.13;1.93;;;5.40;99.90;;;;;;5031943;28;20415;-62
2024/03/25 02:59:21;;;;;;;2.37;1.73;;;5.30;99.90;;;;;;5032373;28;20731;-62
2024/03/25 03:01:46;;;;;;;2.30;1.87;;;5.30;99.90;;;;;;5032654;28;20206;-65
2024/03/25 03:04:12;;;;;;;2.23;2.10;;;5.20;99.90;;;;;;5032071;28;20222;-64
2024/03/25 03:06:38;;;;;;;2.30;1.77;;;5.30;99.90;;;;;;5032371;28;20176;-63
2024/03/25 03:09:04;;;;;;;2.60;2.23;;;5.20;99.90;;;;;;5032875;28;20547;-63
2024/03/25 03:11:29;;;;;;;2.30;2.10;;;5.30;99.90;;;;;;5032436;28;20238;-62
2024/03/25 03:13:55;;;;;;;2.23;2.00;;;5.30;99.90;;;;;;5033599;28;20179;-62
2024/03/25 03:16:20;;;;;;;2.70;1.80;;;5.30;99.90;;;;;;5033549;28;20248;-62
2024/03/25 03:18:46;;;;;;;2.87;2.40;;;5.30;99.90;;;;;;5033053;28;20615;-63
2024/03/25 03:21:11;;;;;;;3.27;2.17;;;5.40;99.90;;;;;;5033830;28;20247;-63
2024/03/25 03:23:37;;;;;;;3.93;3.07;;;5.40;99.90;;;;;;5036047;28;20207;-64
2024/03/25 03:26:02;;;;;;;4.30;3.20;;;5.40;99.90;;;;;;5037789;28;20553;-62
2024/03/25 03:28:28;;;;;;;5.10;3.30;;;5.50;99.90;;;;;;5037310;28;20329;-63
2024/03/25 03:30:54;;;;;;;6.40;3.67;;;5.40;99.90;;;;;;5037097;28;20245;-63
2024/03/25 03:33:19;;;;;;;5.53;3.63;;;5.40;99.90;;;;;;5036696;28;20302;-63
2024/03/25 03:35:45;;;;;;;3.90;3.10;;;5.50;99.90;;;;;;5036394;28;20186;-63
2024/03/25 03:38:11;;;;;;;8.50;3.93;;;5.50;99.90;;;;;;5035968;28;20180;-62
2024/03/25 03:40:36;;;;;;;8.93;3.20;;;5.60;99.90;;;;;;5036097;28;20261;-63
2024/03/25 03:43:02;;;;;;;6.17;3.33;;;5.50;99.90;;;;;;5037084;28;20179;-63
2024/03/25 03:45:33;;;;;;;6.63;3.40;;;5.50;99.90;;;;;;5036770;28;20665;-63
2024/03/25 03:47:58;;;;;;;3.77;3.17;;;5.50;99.90;;;;;;5049487;22;20220;-50
2024/03/25 03:50:24;;;;;;;6.30;3.27;;;5.50;99.90;;;;;;5017012;28;20509;-53
2024/03/25 03:52:50;;;;;;;7.07;3.33;;;5.60;99.90;;;;;;5014577;28;20187;-54
2024/03/25 03:55:15;;;;;;;5.37;3.53;;;5.60;99.90;;;;;;5014798;28;20176;-52
2024/03/25 03:57:42;;;;;;;4.03;3.10;;;5.60;99.90;;;;;;5014211;28;20231;-55
2024/03/25 04:00:09;;;;;;;5.37;3.13;;;5.60;99.90;;;;;;5014209;28;20184;-55
2024/03/25 04:02:37;;;;;;;5.03;3.47;;;5.60;99.90;;;;;;5007871;28;20459;-50
2024/03/25 04:05:02;;;;;;;3.97;2.97;;;5.50;99.90;;;;;;5014329;28;20430;-51
2024/03/25 04:07:28;;;;;;;5.93;3.50;;;5.50;99.90;;;;;;5014010;28;20180;-56
2024/03/25 04:09:54;;;;;;;4.23;2.87;;;5.50;99.90;;;;;;5014043;28;20176;-58
2024/03/25 04:12:20;;;;;;;4.90;4.27;;;5.50;99.90;;;;;;5010107;28;20411;-49
2024/03/25 04:14:52;;;;;;;4.83;3.27;;;5.50;99.90;;;;;;5013719;28;20271;-51
2024/03/25 04:17:18;;;;;;;5.10;3.10;;;5.50;99.90;;;;;;5013826;28;20185;-51
2024/03/25 04:19:43;;;;;;;4.03;3.50;;;5.50;99.90;;;;;;5013621;28;20521;-55
2024/03/25 04:22:09;;;;;;;4.50;3.40;;;5.50;99.90;;;;;;5013641;28;20215;-55
2024/03/25 04:24:35;;;;;;;4.33;3.00;;;5.50;99.90;;;;;;5013656;28;20183;-52
2024/03/25 04:27:00;;;;;;;3.53;3.23;;;5.50;99.90;;;;;;5013508;28;20647;-53
2024/03/25 04:29:26;;;;;;;2.30;2.10;;;5.50;99.90;;;;;;5013604;28;20239;-52
2024/03/25 04:31:51;;;;;;;3.23;2.33;;;5.50;99.90;;;;;;5013406;28;20199;-54
2024/03/25 04:34:17;;;;;;;2.60;2.23;;;5.50;99.90;;;;;;5012397;28;20226;-52
2024/03/25 04:36:42;;;;;;;4.53;3.40;;;5.50;99.90;;;;;;5013625;28;20227;-55
2024/03/25 04:39:08;;;;;;;3.03;2.73;;;5.50;99.90;;;;;;5013411;28;20208;-53
2024/03/25 04:41:34;;;;;;;3.50;2.40;;;5.50;99.90;;;;;;5012880;28;20204;-52
2024/03/25 04:43:59;;;;;;;2.73;2.40;;;5.50;99.90;;;;;;5013236;28;20179;-55
2024/03/25 04:46:25;;;;;;;3.33;3.03;;;5.60;99.90;;;;;;5013124;28;20186;-55
2024/03/25 04:48:50;;;;;;;3.97;3.10;;;5.50;99.90;;;;;;5012862;28;20928;-50
2024/03/25 04:51:16;;;;;;;2.67;2.47;;;5.60;99.90;;;;;;5013309;28;20181;-52
2024/03/25 04:53:41;;;;;;;6.23;3.27;;;5.50;99.90;;;;;;5013297;28;20184;-52
2024/03/25 04:56:07;;;;;;;3.50;3.17;;;5.50;99.90;;;;;;5012834;28;20177;-57
2024/03/25 04:58:33;;;;;;;3.97;3.17;;;5.60;99.90;;;;;;5012581;28;20204;-52
2024/03/25 05:00:58;;;;;;;6.00;3.70;;;5.60;99.90;;;;;;5009740;28;20660;-53
2024/03/25 05:03:24;;;;;;;4.00;3.60;;;5.60;99.90;;;;;;5013305;28;20255;-53
2024/03/25 05:05:50;;;;;;;5.40;3.33;;;5.60;99.90;;;;;;5012781;28;20188;-51
2024/03/25 05:08:15;;;;;;;5.27;3.60;;;5.60;99.90;;;;;;5013190;28;20279;-51
2024/03/25 05:10:41;;;;;;;3.60;3.07;;;5.60;99.90;;;;;;5012741;28;20477;-49
2024/03/25 05:13:06;;;;;;;4.07;3.60;;;5.60;99.90;;;;;;5012629;28;20181;-52
2024/03/25 05:15:32;;;;;;;6.37;3.60;;;5.60;99.90;;;;;;5012405;28;20666;-51
2024/03/25 05:17:58;;;;;;;4.80;3.63;;;5.60;99.90;;;;;;5012971;28;20236;-52
2024/03/25 05:20:23;;;;;;;4.40;3.70;;;5.60;99.90;;;;;;5013033;28;20184;-55
2024/03/25 05:22:49;;;;;;;5.33;4.27;;;5.60;99.90;;;;;;5012912;28;20200;-55
2024/03/25 05:25:15;;;;;;;4.63;3.40;;;5.60;99.90;;;;;;5011937;28;20431;-50
2024/03/25 05:27:40;;;;;;;5.10;3.17;;;5.60;99.90;;;;;;5012808;28;20194;-55
2024/03/25 05:30:06;;;;;;;4.67;3.70;;;5.60;99.90;;;;;;5012630;28;20295;-53
2024/03/25 05:32:32;;;;;;;8.20;3.67;;;5.70;99.90;;;;;;5012854;28;20202;-53
2024/03/25 05:34:57;;;;;;;4.80;3.67;;;5.70;99.90;;;;;;5012406;28;20476;-49
2024/03/25 05:37:23;;;;;;;6.10;3.40;;;5.70;99.90;;;;;;5011887;28;20195;-49
2024/03/25 05:39:49;;;;;;;3.83;3.50;;;5.60;99.90;;;;;;5012422;28;20192;-52
2024/03/25 05:42:14;;;;;;;6.10;3.70;;;5.60;99.90;;;;;;5012289;28;20201;-54
2024/03/25 05:44:40;;;;;;;6.83;3.60;;;5.60;99.90;;;;;;5012715;28;20210;-49
2024/03/25 05:47:05;;;;;;;4.90;3.90;;;5.70;99.90;;;;;;5012158;28;20188;-51
2024/03/25 05:49:31;;;;;;;4.10;3.50;;;5.60;99.90;;;;;;5012346;28;20216;-51
2024/03/25 05:51:56;;;;;;;15.90;4.50;;;5.70;99.90;;;;;;5012411;28;20267;-56
2024/03/25 05:54:22;;;;;;;5.10;3.83;;;5.70;99.90;;;;;;5012038;28;20192;-52
2024/03/25 05:56:47;;;;;;;4.70;4.10;;;5.70;99.90;;;;;;5012356;28;20200;-49
2024/03/25 05:59:13;;;;;;;6.40;4.27;;;5.70;99.90;;;;;;5012079;28;20206;-54
2024/03/25 06:01:40;;;;;;;8.73;4.77;;;5.70;99.90;;;;;;5012377;28;20673;-55
2024/03/25 06:04:05;;;;;;;5.50;4.87;;;5.70;99.90;;;;;;5012857;28;20185;-51
2024/03/25 06:06:32;;;;;;;16.53;5.00;;;5.70;99.90;;;;;;5011991;28;20473;-55
2024/03/25 06:08:58;;;;;;;10.27;4.77;;;5.70;99.90;;;;;;5011868;28;20551;-53
2024/03/25 06:11:23;;;;;;;6.83;4.33;;;5.70;99.90;;;;;;5011423;28;20443;-54
2024/03/25 06:13:49;;;;;;;8.10;4.13;;;5.70;99.90;;;;;;5011626;28;20455;-52
2024/03/25 06:16:14;;;;;;;7.53;4.43;;;5.70;99.90;;;;;;5011881;28;20277;-53
2024/03/25 06:18:40;;;;;;;6.90;3.33;;;5.60;99.90;;;;;;5012180;28;20211;-51
2024/03/25 06:21:06;;;;;;;11.07;6.10;;;5.70;99.90;;;;;;5012478;28;20214;-55
2024/03/25 06:23:32;;;;;;;7.07;3.80;;;5.70;99.90;;;;;;5011120;28;20196;-59
2024/03/25 06:25:58;;;;;;;6.27;3.60;;;5.70;99.90;;;;;;4997072;28;20416;-55
2024/03/25 06:28:23;;;;;;;14.50;4.97;;;5.70;99.90;;;;;;5012027;28;20694;-52
2024/03/25 06:36:20;;;;;;;6.90;4.40;;;5.70;99.90;;;;;;5011317;28;20525;-54
2024/03/25 06:38:45;;;;;;;5.77;3.50;;;5.70;99.90;;;;;;5011280;28;20474;-56
2024/03/25 06:41:11;;;;;;;7.70;4.33;;;5.80;99.90;;;;;;5011399;28;20521;-58
2024/03/25 06:43:41;;;;;;;6.43;3.97;;;5.70;99.90;;;;;;5011654;28;20427;-54
2024/03/25 06:46:07;;;;;;;4.60;4.00;;;5.70;99.90;;;;;;5010957;28;20184;-49
2024/03/25 06:48:34;;;;;;;9.23;3.60;;;5.70;99.90;;;;;;5011291;28;20462;-54
2024/03/25 06:51:02;;;;;;;9.97;4.40;;;5.80;99.90;;;;;;5011503;28;20470;-56
2024/03/25 06:53:28;;;;;;;5.73;4.57;;;5.80;99.90;;;;;;5011352;28;20526;-56
2024/03/25 06:55:55;;;;;;;5.00;3.93;;;5.80;99.90;;;;;;5010920;28;20527;-55
2024/03/25 06:58:21;;;;;;;5.87;4.10;;;5.80;99.90;;;;;;5013690;28;20447;-53
2024/03/25 07:00:48;;;;;;;7.03;4.00;;;5.80;99.90;;;;;;5015117;28;20431;-54
2024/03/25 07:03:23;;;;;;;5.83;3.70;;;5.80;99.90;;;;;;5015393;28;20427;-58
2024/03/25 07:05:52;;;;;;;5.17;3.00;;;5.80;99.90;;;;;;5015331;28;20455;-55
2024/03/25 07:08:19;;;;;;;10.07;5.10;;;5.90;99.90;;;;;;5015490;28;20443;-55
2024/03/25 07:10:45;;;;;;;5.47;3.60;;;5.90;99.90;;;;;;5014372;28;20818;-49
2024/03/25 07:13:12;;;;;;;4.80;3.63;;;5.90;99.90;;;;;;5014956;28;20459;-52
2024/03/25 07:15:38;;;;;;;11.43;3.37;;;5.90;99.90;;;;;;5015140;28;20437;-55
2024/03/25 07:18:04;;;;;;;6.60;3.53;;;5.90;99.90;;;;;;5015064;28;20454;-51
2024/03/25 07:20:30;;;;;;;3.43;3.13;;;5.90;99.90;;;;;;5015093;28;20422;-56
2024/03/25 07:22:56;;;;;;;4.77;3.53;;;5.80;99.90;;;;;;5014842;28;20207;-57
2024/03/25 07:25:22;;;;;;;4.67;3.60;;;5.80;99.90;;;;;;5015090;28;20466;-57
2024/03/25 07:27:48;;;;;;;7.43;4.63;;;5.90;99.90;;;;;;5014934;28;20965;-55
2024/03/25 07:30:14;;;;;;;6.10;3.50;;;5.80;99.90;;;;;;5013769;28;20561;-56
2024/03/25 07:32:40;;;;;;;6.43;4.00;;;5.80;99.90;;;;;;5012286;28;20654;-53
2024/03/25 07:35:08;;;;;;;4.60;3.13;;;5.80;99.90;;;;;;5014832;28;20434;-55
2024/03/25 07:37:34;;;;;;;3.40;3.00;;;5.80;99.90;;;;;;5015289;28;20184;-54
2024/03/25 07:40:00;;;;;;;9.73;3.03;;;5.80;99.90;;;;;;5014670;28;20422;-51
2024/03/25 07:42:25;;;;;;;4.67;2.80;;;5.80;99.90;;;;;;5010099;28;20559;-54
2024/03/25 07:44:51;;;;;;;4.83;2.97;;;5.90;99.90;;;;;;5013004;28;20569;-56
2024/03/25 07:47:17;;;;;;;7.17;2.67;;;5.90;99.90;;;;;;5014523;28;20544;-54
2024/03/25 07:49:42;;;;;;;2.50;2.23;;;5.80;99.90;;;;;;5013576;28;20223;-53
2024/03/25 07:52:08;;;;;;;3.13;2.13;;;6.00;99.90;;;;;;5014822;28;20207;-53
2024/03/25 07:54:33;;;;;;;5.63;2.90;;;6.10;99.90;;;;;;5014324;28;20210;-55
2024/03/25 07:56:59;;;;;;;4.37;3.03;;;6.10;99.90;;;;;;5006849;28;20647;-55
2024/03/25 07:59:25;;;;;;;4.00;2.70;;;6.00;99.90;;;;;;5011703;28;20208;-55
2024/03/25 08:01:50;;;;;;;2.47;2.27;;;5.80;99.90;;;;;;5014398;28;20622;-50
2024/03/25 08:04:16;;;;;;;2.97;2.67;;;5.80;99.90;;;;;;5014381;28;20178;-56
2024/03/25 08:06:42;;;;;;;5.17;2.60;;;5.90;99.90;;;;;;5014327;28;20195;-51
2024/03/25 08:09:09;;;;;;;3.10;2.23;;;5.90;99.90;;;;;;5014186;28;20258;-54
2024/03/25 08:11:35;;;;;;;3.00;2.67;;;6.00;99.90;;;;;;5014260;28;20519;-51
2024/03/25 08:14:00;;;;;;;6.93;3.33;;;6.10;99.90;;;;;;5006764;28;21042;-51
2024/03/25 08:16:26;;;;;;;5.07;2.93;;;6.20;99.90;;;;;;5014320;28;20192;-56
2024/03/25 08:18:51;;;;;;;5.37;3.20;;;6.30;99.90;;;;;;5014226;28;20341;-54
2024/03/25 08:21:17;;;;;;;5.70;2.43;;;6.40;99.90;;;;;;5014554;28;20215;-52
2024/03/25 08:23:46;;;;;;;4.47;3.40;;;6.60;99.90;;;;;;5014161;28;20518;-49
2024/03/25 08:26:12;;;;;;;4.30;3.90;;;6.80;99.90;;;;;;5014018;28;20474;-54
2024/03/25 08:28:37;;;;;;;4.50;3.83;;;6.70;99.90;;;;;;5016794;28;20445;-54
2024/03/25 08:31:03;;;;;;;4.30;2.97;;;6.70;99.90;;;;;;5013821;28;20423;-49
2024/03/25 08:33:29;;;;;;;3.03;2.40;;;7.00;99.90;;;;;;5013706;28;20807;-49
2024/03/25 08:35:55;;;;;;;3.43;3.13;;;7.00;99.90;;;;;;5013359;28;20477;-54
2024/03/25 08:38:21;;;;;;;5.43;2.77;;;7.00;99.90;;;;;;5013916;28;20231;-50
2024/03/25 08:40:47;;;;;;;4.47;3.60;;;7.10;99.90;;;;;;5012859;28;20190;-52
2024/03/25 08:43:12;;;;;;;3.47;3.17;;;7.00;99.90;;;;;;5007242;28;20261;-54
2024/03/25 08:45:38;;;;;;;5.47;3.60;;;6.80;99.90;;;;;;5013297;28;21362;-55
2024/03/25 08:48:04;;;;;;;7.50;5.17;;;6.80;99.90;;;;;;5013658;28;20204;-54
2024/03/25 08:50:29;;;;;;;4.40;3.67;;;7.00;99.90;;;;;;5014098;28;20192;-52
2024/03/25 08:52:55;;;;;;;5.43;3.83;;;7.00;99.90;;;;;;5013772;28;21127;-53
2024/03/25 08:55:20;;;;;;;4.10;3.57;;;7.10;99.90;;;;;;5014378;28;20176;-53
2024/03/25 08:57:46;;;;;;;6.20;3.70;;;7.10;99.90;;;;;;5013526;28;20241;-54
2024/03/25 09:00:12;;;;;;;3.73;2.93;;;7.10;99.90;;;;;;5012379;28;20563;-54
2024/03/25 09:02:38;;;;;;;3.87;3.13;;;7.20;99.90;;;;;;5013990;28;20216;-53
2024/03/25 09:05:08;;;;;;;4.43;3.40;;;7.10;99.90;;;;;;5013537;28;20439;-51
2024/03/25 09:07:33;;;;;;;5.70;3.67;;;7.20;99.90;;;;;;5013257;28;20205;-49
2024/03/25 09:12:43;;;;;;;4.43;3.43;;;7.30;99.90;;;;;;5013404;28;20255;-52
2024/03/25 09:15:12;;;;;;;3.43;3.00;;;7.30;99.90;;;;;;5012853;28;20423;-52
2024/03/25 09:17:37;;;;;;;4.10;3.40;;;7.40;99.90;;;;;;5013569;28;20595;-51
2024/03/25 09:20:20;;;;;;;5.33;3.13;;;7.40;99.90;;;;;;5012756;28;20406;-53
2024/03/25 09:22:49;;;;;;;7.47;3.80;;;7.40;99.90;;;;;;5009687;28;20208;-52
2024/03/25 09:25:16;;;;;;;5.27;4.50;;;7.50;99.90;;;;;;5013253;28;20429;-54
2024/03/25 09:27:45;;;;;;;9.17;3.63;;;7.50;99.90;;;;;;5013412;28;20427;-52
2024/03/25 09:30:11;;;;;;;3.70;3.20;;;7.40;99.90;;;;;;5012505;28;20828;-54
2024/03/25 09:32:37;;;;;;;5.13;3.30;;;7.50;99.90;;;;;;5012616;28;20424;-56
2024/03/25 09:35:03;;;;;;;5.20;3.43;;;7.30;99.90;;;;;;5012835;28;20627;-55
2024/03/25 09:37:29;;;;;;;6.20;3.57;;;7.60;99.90;;;;;;5009994;28;20418;-54
2024/03/25 09:39:55;;;;;;;4.40;3.43;;;7.40;99.90;;;;;;5012930;28;20508;-52
2024/03/25 09:42:41;;;;;;;3.80;3.43;;;7.40;99.90;;;;;;5007300;28;21037;-54
2024/03/25 09:45:08;;;;;;;6.13;3.30;;;7.30;99.90;;;;;;5012415;28;20624;-54
2024/03/25 09:47:34;;;;;;;5.37;4.40;;;7.30;99.90;;;;;;5012577;28;20415;-53
2024/03/25 09:50:04;;;;;;;5.03;2.90;;;7.20;99.90;;;;;;5012280;28;20912;-53
2024/03/25 09:52:29;;;;;;;6.57;3.50;;;7.30;99.90;;;;;;5012484;28;20775;-51
2024/03/25 09:54:55;;;;;;;4.70;3.03;;;7.30;99.90;;;;;;5012255;28;20432;-53
2024/03/25 09:57:21;;;;;;;4.80;3.43;;;7.40;99.90;;;;;;5012598;28;20188;-55
2024/03/25 09:59:47;;;;;;;4.50;3.17;;;7.60;99.90;;;;;;5011779;28;20444;-55
2024/03/25 10:02:14;;;;;;;5.67;4.37;;;7.90;99.90;;;;;;5012128;28;20743;-52
2024/03/25 10:04:45;;;;;;;7.93;3.60;;;8.00;99.90;;;;;;5032656;22;20234;-64
2024/03/25 10:07:10;;;;;;;4.57;2.90;;;8.30;99.90;;;;;;5021978;28;20529;-62
2024/03/25 10:09:36;;;;;;;5.57;3.57;;;8.50;99.90;;;;;;5030038;28;20441;-62
2024/03/25 10:12:02;;;;;;;3.90;3.20;;;8.60;99.90;;;;;;5029379;28;20214;-62
2024/03/25 10:14:27;;;;;;;4.00;3.43;;;8.70;99.90;;;;;;5029815;28;20207;-61
2024/03/25 10:16:53;;;;;;;5.87;3.40;;;8.70;99.90;;;;;;5025697;28;20200;-62
2024/03/25 10:19:18;;;;;;;5.30;2.53;;;8.90;99.90;;;;;;5029003;28;20270;-62
2024/03/25 10:21:44;;;;;;;4.27;2.77;;;8.90;99.90;;;;;;5029599;28;20217;-62
2024/03/25 10:24:10;;;;;;;6.37;3.20;;;8.80;99.90;;;;;;5028615;28;20271;-65
2024/03/25 10:26:38;;;;;;;4.67;2.40;;;8.50;99.90;;;;;;5029303;28;20544;-61
2024/03/25 10:29:07;;;;;;;2.97;2.23;;;8.70;99.90;;;;;;5028712;28;20507;-62
2024/03/25 10:31:33;;;;;;;2.87;2.10;;;8.50;99.90;;;;;;5028723;28;20502;-62
2024/03/25 10:33:59;;;;;;;2.97;2.67;;;8.60;99.90;;;;;;5023543;28;20427;-63
2024/03/25 10:36:25;;;;;;;4.70;2.50;;;8.70;99.90;;;;;;5027623;28;20502;-62
2024/03/25 10:38:56;;;;;;;3.00;2.33;;;8.70;99.90;;;;;;5029138;28;20425;-62
2024/03/25 10:41:22;;;;;;;5.13;2.20;;;8.70;99.90;;;;;;5028862;28;20468;-61
2024/03/25 10:43:49;;;;;;;3.90;1.80;;;8.60;99.90;;;;;;5028667;28;20941;-63
2024/03/25 10:46:18;;;;;;;3.33;2.50;;;8.90;99.90;;;;;;5025713;28;20422;-63
2024/03/25 10:48:53;;;;;;;2.10;1.83;;;9.50;99.90;;;;;;5029242;28;20501;-64
2024/03/25 10:51:21;;;;;;;2.77;2.10;;;9.20;99.90;;;;;;5027753;28;20449;-63
2024/03/25 10:53:50;;;;;;;2.70;1.80;;;9.40;99.90;;;;;;5028994;28;20471;-64
2024/03/25 10:56:16;;;;;;;2.73;1.70;;;9.30;99.90;;;;;;5024850;28;20468;-63
2024/03/25 10:58:42;;;;;;;2.40;2.13;;;9.60;99.90;;;;;;5028946;28;20422;-63
2024/03/25 11:01:09;;;;;;;6.90;2.43;;;9.90;99.90;;;;;;5028823;28;20508;-63
2024/03/25 11:03:35;;;;;;;6.37;1.97;;;10.20;99.90;;;;;;5021119;28;20421;-63
2024/03/25 11:06:01;;;;;;;2.43;2.20;;;9.80;99.90;;;;;;5029297;28;20446;-62
2024/03/25 11:08:32;;;;;;;2.23;1.80;;;9.80;99.90;;;;;;5029513;28;20791;-62
2024/03/25 11:10:57;;;;;;;1.63;1.53;;;9.90;99.90;;;;;;5029575;28;20602;-62
2024/03/25 11:13:23;;;;;;;1.57;1.47;;;9.50;99.90;;;;;;5028578;28;20553;-62
2024/03/25 11:15:49;;;;;;;3.50;1.90;;;9.40;99.90;;;;;;5028210;28;20567;-62
2024/03/25 11:18:25;;;;;;;1.60;1.50;;;9.70;99.90;;;;;;5028226;28;20544;-63
2024/03/25 11:21:08;;;;;;;2.23;1.50;;;9.80;99.90;;;;;;5027352;28;20475;-63
2024/03/25 11:23:42;;;;;;;2.30;1.53;;;9.90;99.90;;;;;;5028888;28;20433;-62
2024/03/25 11:26:27;;;;;;;2.27;1.60;;;10.50;99.90;;;;;;5029078;28;20708;-62
2024/03/25 11:28:53;;;;;;;2.50;1.60;;;10.20;99.90;;;;;;5029153;28;20425;-63
2024/03/25 11:31:21;;;;;;;3.80;1.93;;;10.20;99.90;;;;;;5029013;28;20738;-63
2024/03/25 11:33:47;;;;;;;2.10;1.67;;;10.10;99.90;;;;;;5029015;28;20533;-61
2024/03/25 11:36:13;;;;;;;2.90;1.60;;;10.30;99.90;;;;;;5029522;28;20771;-62
2024/03/25 11:38:41;;;;;;;2.73;1.73;;;10.00;99.90;;;;;;5029089;28;20418;-61
2024/03/25 11:41:07;;;;;;;2.03;1.60;;;9.50;99.90;;;;;;5028231;28;20191;-62
2024/03/25 11:43:34;;;;;;;3.17;2.00;;;9.70;99.90;;;;;;5022120;28;20963;-61
2024/03/25 11:45:59;;;;;;;2.53;1.70;;;10.00;99.90;;;;;;5030393;28;20430;-62
2024/03/25 11:48:25;;;;;;;2.73;1.97;;;10.10;99.90;;;;;;5028266;28;20528;-62
2024/03/25 11:50:51;;;;;;;1.90;1.70;;;10.50;99.90;;;;;;5031368;28;20203;-63
2024/03/25 11:53:16;;;;;;;2.30;1.93;;;10.60;99.90;;;;;;5028670;28;21042;-63
2024/03/25 11:55:46;;;;;;;1.97;1.53;;;10.00;99.90;;;;;;5031079;28;20417;-61
2024/03/25 11:58:12;;;;;;;2.90;1.73;;;9.90;99.90;;;;;;5028947;28;20210;-61
2024/03/25 12:00:45;;;;;;;1.97;1.77;;;9.80;99.90;;;;;;5032134;28;20449;-63
2024/03/25 12:03:14;;;;;;;3.00;1.50;;;10.20;99.90;;;;;;5032220;28;20276;-61
2024/03/25 12:05:41;;;;;;;2.03;1.60;;;10.50;99.90;;;;;;5032675;28;20450;-63
2024/03/25 12:08:09;;;;;;;1.90;1.60;;;10.40;99.90;;;;;;5031446;28;20931;-63
2024/03/25 12:13:20;;;;;;;2.63;1.70;;;10.00;99.90;;;;;;5024007;28;20432;-63
2024/03/25 12:15:45;;;;;;;3.73;1.60;;;10.60;99.90;;;;;;5031894;28;20454;-63
2024/03/25 12:18:11;;;;;;;2.07;1.87;;;10.80;99.90;;;;;;5031390;28;20196;-63
2024/03/25 12:20:38;;;;;;;2.87;1.80;;;10.10;99.90;;;;;;5031556;28;20313;-63
2024/03/25 12:23:04;;;;;;;1.87;1.30;;;9.90;99.90;;;;;;5031960;28;20208;-64
2024/03/25 12:25:30;;;;;;;2.00;1.80;;;10.10;99.90;;;;;;5031185;28;20554;-61
2024/03/25 12:27:57;;;;;;;2.73;1.47;;;10.10;99.90;;;;;;5031341;28;20521;-61
2024/03/25 12:30:22;;;;;;;2.67;1.57;;;10.00;99.90;;;;;;5030738;28;20553;-63
2024/03/25 12:32:50;;;;;;;2.07;1.63;;;10.30;99.90;;;;;;5031922;28;20426;-62
2024/03/25 12:35:17;;;;;;;3.07;1.53;;;9.70;99.90;;;;;;5031020;28;20199;-62
2024/03/25 12:37:44;;;;;;;2.97;1.53;;;9.60;99.90;;;;;;5031817;28;20964;-64
2024/03/25 12:40:12;;;;;;;4.40;1.60;;;10.10;99.90;;;;;;5030962;28;20423;-62
2024/03/25 12:42:41;;;;;;;3.90;1.40;;;10.20;99.90;;;;;;5026518;28;21368;-62
2024/03/25 12:45:07;;;;;;;1.90;1.60;;;10.00;99.90;;;;;;5029702;28;20442;-61
2024/03/25 12:47:33;;;;;;;5.90;3.30;;;10.30;99.90;;;;;;5029020;28;20426;-63
2024/03/25 12:49:59;;;;;;;3.23;2.00;;;9.90;99.90;;;;;;5027881;28;20433;-63
2024/03/25 12:52:25;;;;;;;3.53;1.30;;;10.10;99.90;;;;;;5030816;28;20426;-62
2024/03/25 12:54:51;;;;;;;1.97;1.43;;;10.00;99.90;;;;;;5025328;28;20811;-62
2024/03/25 12:57:17;;;;;;;1.70;1.47;;;9.80;99.90;;;;;;5027026;28;20440;-62
2024/03/25 12:59:43;;;;;;;1.73;1.63;;;10.00;99.90;;;;;;5030566;28;20553;-62
2024/03/25 13:02:11;;;;;;;1.67;1.30;;;10.10;99.90;;;;;;5025432;28;20208;-63